Time;durP1;ratioP1;P1;durP2;ratioP2;P2;SDS_P1;SDS_P2;PMS_P1;PMS_P2;Temp;Humidity;BMP_temperature;BMP_pressure;BME280_temperature;BME280_humidity;BME280_pressure;Samples;Min_cycle;Max_cycle;Signal;HPM_P1;HPM_P2
2021/08/24 00:02:12;;;;;;;8.70;6.47;;;14.80;99.90;;;;;;5052299;28;20025;-70
2021/08/24 00:04:37;;;;;;;8.13;7.25;;;14.80;99.90;;;;;;5052866;28;20482;-70
2021/08/24 00:07:03;;;;;;;12.93;7.10;;;14.90;99.90;;;;;;5053409;28;20075;-71
2021/08/24 00:09:29;;;;;;;9.48;7.15;;;14.90;99.90;;;;;;5052368;28;20383;-71
2021/08/24 00:11:54;;;;;;;9.55;5.97;;;14.90;99.90;;;;;;5053432;28;20104;-71
2021/08/24 00:14:20;;;;;;;7.20;5.50;;;15.00;99.90;;;;;;5053085;28;20029;-71
2021/08/24 00:16:47;;;;;;;8.23;5.30;;;14.90;99.90;;;;;;5053219;28;20717;-72
2021/08/24 00:19:13;;;;;;;5.93;5.18;;;14.90;99.90;;;;;;5053145;28;20064;-70
2021/08/24 00:21:40;;;;;;;6.25;5.35;;;15.00;99.90;;;;;;5051924;28;20056;-70
2021/08/24 00:24:07;;;;;;;6.35;4.85;;;15.00;99.90;;;;;;5052923;28;20044;-70
2021/08/24 00:26:33;;;;;;;10.70;6.03;;;15.00;99.90;;;;;;5052544;28;20498;-71
2021/08/24 00:28:58;;;;;;;6.55;5.28;;;15.10;99.90;;;;;;5053173;28;20036;-72
2021/08/24 00:31:24;;;;;;;9.70;5.82;;;15.10;99.90;;;;;;5052972;28;20067;-71
2021/08/24 00:33:50;;;;;;;10.85;5.50;;;15.20;99.90;;;;;;5052880;28;20036;-71
2021/08/24 00:36:17;;;;;;;5.82;5.25;;;15.20;99.90;;;;;;5051695;28;20057;-71
2021/08/24 00:38:43;;;;;;;6.78;5.57;;;15.10;99.90;;;;;;5052981;28;20021;-70
2021/08/24 00:41:09;;;;;;;6.32;5.15;;;15.20;99.90;;;;;;5052935;28;20048;-72
2021/08/24 00:43:38;;;;;;;6.32;5.13;;;15.20;99.90;;;;;;5052647;28;20025;-72
2021/08/24 00:46:28;;;;;;;5.47;4.40;;;15.10;99.90;;;;;;5051967;28;20041;-70
2021/08/24 00:48:55;;;;;;;5.80;4.68;;;15.00;99.90;;;;;;5052679;28;20395;-71
2021/08/24 00:51:24;;;;;;;5.00;4.50;;;15.00;99.90;;;;;;5052437;28;20479;-71
2021/08/24 00:53:51;;;;;;;7.20;4.78;;;15.00;99.90;;;;;;5052582;28;20021;-71
2021/08/24 00:56:16;;;;;;;4.97;4.47;;;15.10;99.90;;;;;;5051925;28;20025;-71
2021/08/24 00:58:42;;;;;;;5.95;5.35;;;15.10;99.90;;;;;;5051762;28;20305;-71
2021/08/24 01:01:09;;;;;;;8.32;5.30;;;15.10;99.90;;;;;;5052360;28;20017;-71
2021/08/24 01:03:41;;;;;;;7.88;5.15;;;15.20;99.90;;;;;;5052209;28;20079;-70
2021/08/24 01:06:21;;;;;;;6.72;5.60;;;15.10;99.90;;;;;;5051196;28;20131;-70
2021/08/24 01:09:02;;;;;;;6.57;5.95;;;15.10;99.90;;;;;;5052386;28;20074;-70
2021/08/24 01:11:52;;;;;;;7.15;6.45;;;15.00;99.90;;;;;;5052141;28;20025;-72
2021/08/24 01:14:30;;;;;;;9.02;6.75;;;14.90;99.90;;;;;;5051426;28;20028;-71
2021/08/24 01:17:12;;;;;;;6.95;6.25;;;14.90;99.90;;;;;;5052422;28;20035;-71
2021/08/24 01:20:05;;;;;;;10.13;6.65;;;14.80;99.90;;;;;;5052516;28;20177;-70
2021/08/24 01:22:46;;;;;;;10.35;6.78;;;14.70;99.90;;;;;;5050611;28;20025;-70
2021/08/24 01:25:25;;;;;;;10.13;7.05;;;14.60;99.90;;;;;;5051424;28;20060;-71
2021/08/24 01:27:56;;;;;;;7.55;6.80;;;14.60;99.90;;;;;;5051853;28;20037;-71
2021/08/24 01:30:42;;;;;;;10.50;7.05;;;14.50;99.90;;;;;;5051918;28;20113;-71
2021/08/24 01:33:22;;;;;;;10.40;8.27;;;14.50;99.90;;;;;;5051912;28;20020;-71
2021/08/24 01:36:08;;;;;;;10.50;7.30;;;14.50;99.90;;;;;;5050998;28;20501;-71
2021/08/24 01:38:43;;;;;;;7.63;6.50;;;14.40;99.90;;;;;;5051694;28;20036;-71
2021/08/24 01:41:08;;;;;;;7.15;5.68;;;14.30;99.90;;;;;;5051818;28;20029;-71
2021/08/24 01:44:03;;;;;;;9.07;5.78;;;14.30;99.90;;;;;;5051716;28;20021;-71
2021/08/24 01:46:52;;;;;;;7.70;5.00;;;14.30;99.90;;;;;;5052353;28;20433;-71
2021/08/24 01:49:21;;;;;;;6.05;5.07;;;14.20;99.90;;;;;;5050860;28;20493;-71
2021/08/24 01:51:52;;;;;;;7.43;4.53;;;14.20;99.90;;;;;;5051932;28;20044;-71
2021/08/24 01:54:35;;;;;;;7.78;4.50;;;14.10;99.90;;;;;;5051113;28;20036;-71
2021/08/24 01:57:02;;;;;;;10.27;4.70;;;14.00;99.90;;;;;;5051557;28;20029;-72
2021/08/24 01:59:40;;;;;;;10.52;4.70;;;14.00;99.90;;;;;;5051197;28;20032;-72
2021/08/24 02:02:29;;;;;;;9.30;4.40;;;13.90;99.90;;;;;;5051389;28;20020;-72
2021/08/24 02:04:57;;;;;;;8.70;4.65;;;13.90;99.90;;;;;;5050634;28;20109;-72
2021/08/24 02:07:27;;;;;;;6.80;4.85;;;13.90;99.90;;;;;;5051117;28;20072;-71
2021/08/24 02:09:58;;;;;;;6.95;4.03;;;13.80;99.90;;;;;;5051265;28;20024;-71
2021/08/24 02:12:26;;;;;;;6.97;4.30;;;13.80;99.90;;;;;;5051259;28;20582;-72
2021/08/24 02:14:52;;;;;;;5.57;4.68;;;13.80;99.90;;;;;;5050007;28;20021;-71
2021/08/24 02:17:22;;;;;;;7.63;4.15;;;13.70;99.90;;;;;;5051386;28;20029;-71
2021/08/24 02:19:53;;;;;;;10.10;4.60;;;13.70;99.90;;;;;;5051341;28;20067;-71
2021/08/24 02:22:30;;;;;;;9.02;4.70;;;13.60;99.90;;;;;;5050754;28;20021;-72
2021/08/24 02:25:23;;;;;;;5.15;4.50;;;13.70;99.90;;;;;;5051246;28;20017;-71
2021/08/24 02:28:02;;;;;;;4.38;4.05;;;13.70;99.90;;;;;;5053181;28;20041;-72
2021/08/24 02:30:31;;;;;;;5.93;4.28;;;13.60;99.90;;;;;;5055046;28;20483;-71
2021/08/24 02:32:57;;;;;;;4.60;4.20;;;13.70;99.90;;;;;;5054910;28;20036;-71
2021/08/24 02:35:58;;;;;;;4.68;4.03;;;13.60;99.90;;;;;;5054410;28;20021;-72
2021/08/24 02:38:27;;;;;;;6.00;3.83;;;13.70;99.90;;;;;;5054284;28;20503;-71
2021/08/24 02:41:07;;;;;;;6.85;3.95;;;13.70;99.90;;;;;;5055163;28;20394;-71
2021/08/24 02:43:36;;;;;;;6.97;3.75;;;13.70;99.90;;;;;;5053738;28;20028;-71
2021/08/24 02:46:39;;;;;;;4.05;3.10;;;13.70;99.90;;;;;;5054423;28;20094;-71
2021/08/24 02:49:40;;;;;;;6.38;3.58;;;13.80;99.90;;;;;;5021274;28;20045;-69
2021/08/24 02:52:10;;;;;;;9.18;3.67;;;13.80;99.90;;;;;;4975827;28;20026;-71
2021/08/24 02:54:42;;;;;;;5.35;3.90;;;13.80;99.90;;;;;;5042862;28;20033;-72
2021/08/24 02:57:09;;;;;;;4.53;3.38;;;13.80;99.90;;;;;;5054979;28;20386;-72
2021/08/24 02:59:35;;;;;;;5.32;3.72;;;13.80;99.90;;;;;;5053738;28;20037;-71
2021/08/24 03:02:01;;;;;;;7.03;3.20;;;13.80;99.90;;;;;;5054383;28;20025;-72
2021/08/24 03:04:28;;;;;;;8.43;3.80;;;13.80;99.90;;;;;;5053843;28;20052;-72
2021/08/24 03:07:04;;;;;;;6.50;3.60;;;13.80;99.90;;;;;;5054331;28;20029;-70
2021/08/24 03:09:32;;;;;;;7.32;4.20;;;13.90;99.90;;;;;;5054490;28;20082;-70
2021/08/24 03:12:22;;;;;;;4.70;3.95;;;13.90;99.90;;;;;;5053147;28;20021;-70
2021/08/24 03:15:12;;;;;;;5.07;3.85;;;13.90;99.90;;;;;;5053906;28;20017;-71
2021/08/24 03:18:01;;;;;;;5.53;3.78;;;13.80;99.90;;;;;;5053371;28;20025;-71
2021/08/24 03:20:32;;;;;;;6.72;4.13;;;13.90;99.90;;;;;;5043239;28;20486;-72
2021/08/24 03:23:00;;;;;;;5.07;3.80;;;13.90;99.90;;;;;;5053957;28;20033;-71
2021/08/24 03:25:26;;;;;;;5.05;3.92;;;13.90;99.90;;;;;;5053474;28;20075;-71
2021/08/24 03:27:53;;;;;;;6.43;4.32;;;13.80;99.90;;;;;;5054060;28;20020;-71
2021/08/24 03:30:21;;;;;;;9.98;4.32;;;13.90;99.90;;;;;;5053905;28;20056;-71
2021/08/24 03:32:48;;;;;;;8.30;4.28;;;13.90;99.90;;;;;;5052227;28;20604;-71
2021/08/24 03:35:15;;;;;;;7.90;4.93;;;13.90;99.90;;;;;;5053195;28;20033;-70
2021/08/24 03:37:43;;;;;;;10.23;5.70;;;14.00;99.90;;;;;;5053500;28;20033;-71
2021/08/24 03:40:10;;;;;;;10.00;6.15;;;14.00;99.90;;;;;;5053978;28;20079;-72
2021/08/24 03:42:36;;;;;;;11.20;5.72;;;13.90;99.90;;;;;;5053755;28;20690;-70
2021/08/24 03:45:02;;;;;;;8.75;6.07;;;13.90;99.90;;;;;;5053146;28;20036;-71
2021/08/24 03:47:28;;;;;;;9.93;6.38;;;13.90;99.90;;;;;;5053395;28;20112;-72
2021/08/24 03:49:54;;;;;;;11.82;6.50;;;13.80;99.90;;;;;;5053490;28;20120;-70
2021/08/24 03:52:19;;;;;;;11.80;6.60;;;13.70;99.90;;;;;;5053726;28;20018;-72
2021/08/24 03:54:45;;;;;;;6.95;5.25;;;13.60;99.90;;;;;;5052973;28;20017;-73
2021/08/24 03:57:10;;;;;;;15.07;6.70;;;13.50;99.90;;;;;;5053639;28;20090;-71
2021/08/24 03:59:36;;;;;;;8.20;5.50;;;13.40;99.90;;;;;;5053329;28;20032;-74
2021/08/24 04:02:04;;;;;;;9.02;6.30;;;13.40;99.90;;;;;;5051867;28;20483;-73
2021/08/24 04:04:30;;;;;;;9.23;7.07;;;13.20;99.90;;;;;;5052681;28;20017;-71
2021/08/24 04:06:56;;;;;;;10.27;6.43;;;13.20;99.90;;;;;;5052046;28;20364;-72
2021/08/24 04:09:22;;;;;;;12.05;6.97;;;13.10;99.90;;;;;;5053342;28;20024;-73
2021/08/24 04:11:47;;;;;;;11.98;7.75;;;13.00;99.90;;;;;;5053370;28;20032;-73
2021/08/24 04:14:13;;;;;;;10.90;7.00;;;13.00;99.90;;;;;;5053137;28;20022;-72
2021/08/24 04:16:38;;;;;;;11.00;7.30;;;12.90;99.90;;;;;;5052473;28;20543;-71
2021/08/24 04:19:04;;;;;;;15.07;7.40;;;12.90;99.90;;;;;;5052848;28;20090;-72
2021/08/24 04:21:30;;;;;;;14.80;6.95;;;12.80;99.90;;;;;;5053248;28;20029;-72
2021/08/24 04:23:56;;;;;;;12.85;7.50;;;12.80;99.90;;;;;;5052872;28;20048;-72
2021/08/24 04:26:22;;;;;;;15.35;8.23;;;12.60;99.90;;;;;;5043987;28;20029;-72
2021/08/24 04:28:48;;;;;;;15.98;8.45;;;12.60;99.90;;;;;;5051441;28;20021;-71
2021/08/24 04:31:16;;;;;;;17.30;8.32;;;12.60;99.90;;;;;;5050946;28;20040;-73
2021/08/24 04:33:42;;;;;;;13.13;8.07;;;12.60;99.90;;;;;;5051281;28;20177;-71
2021/08/24 04:36:08;;;;;;;14.73;8.00;;;12.60;99.90;;;;;;5050906;28;20017;-71
2021/08/24 04:38:34;;;;;;;11.15;9.13;;;12.50;99.90;;;;;;5052213;28;20489;-71
2021/08/24 04:41:01;;;;;;;12.27;8.30;;;12.50;99.90;;;;;;5052519;28;20025;-71
2021/08/24 04:43:26;;;;;;;13.43;8.98;;;12.60;99.90;;;;;;5052463;28;20036;-71
2021/08/24 04:45:52;;;;;;;16.75;8.32;;;12.50;99.90;;;;;;5031814;28;20029;-71
2021/08/24 04:48:19;;;;;;;12.43;8.68;;;12.50;99.90;;;;;;5044596;28;20028;-72
2021/08/24 04:50:45;;;;;;;12.43;8.80;;;12.50;99.90;;;;;;5052016;28;20104;-72
2021/08/24 04:53:12;;;;;;;15.95;9.18;;;12.50;99.90;;;;;;5051899;28;20052;-73
2021/08/24 04:55:38;;;;;;;11.32;8.25;;;12.40;99.90;;;;;;5051423;28;20025;-70
2021/08/24 04:58:04;;;;;;;14.85;9.25;;;12.40;99.90;;;;;;5051255;28;20482;-71
2021/08/24 05:00:31;;;;;;;13.43;8.13;;;12.40;99.90;;;;;;5052092;28;20033;-71
2021/08/24 05:02:57;;;;;;;13.25;7.90;;;12.40;99.90;;;;;;5038343;28;20901;-72
2021/08/24 05:05:23;;;;;;;15.60;9.73;;;12.40;99.90;;;;;;5031440;28;20076;-72
2021/08/24 05:07:48;;;;;;;14.02;7.53;;;12.50;99.90;;;;;;5031740;28;20029;-72
2021/08/24 05:10:14;;;;;;;12.32;8.32;;;12.50;99.90;;;;;;5032127;28;20453;-72
2021/08/24 05:12:40;;;;;;;11.02;7.38;;;12.50;99.90;;;;;;5031882;28;20480;-70
2021/08/24 05:15:06;;;;;;;10.25;7.95;;;12.40;99.90;;;;;;5030832;28;20104;-70
2021/08/24 05:17:32;;;;;;;14.75;9.15;;;12.50;99.90;;;;;;5029835;28;20044;-72
2021/08/24 05:19:58;;;;;;;12.88;9.00;;;12.60;99.90;;;;;;5031727;28;20570;-70
2021/08/24 05:22:23;;;;;;;12.80;8.25;;;12.80;99.90;;;;;;5050144;28;20116;-72
2021/08/24 05:24:49;;;;;;;15.88;8.50;;;12.80;99.90;;;;;;5118825;22;20051;-75
2021/08/24 05:27:15;;;;;;;16.45;8.60;;;12.80;99.90;;;;;;5051116;28;20029;-75
2021/08/24 05:29:41;;;;;;;11.77;8.70;;;12.80;99.90;;;;;;5051713;28;20018;-75
2021/08/24 05:32:07;;;;;;;13.38;9.52;;;12.80;99.90;;;;;;5051971;28;20550;-75
2021/08/24 05:34:33;;;;;;;17.00;9.15;;;12.90;99.90;;;;;;5053114;28;20028;-75
2021/08/24 05:36:59;;;;;;;13.25;9.73;;;12.80;99.90;;;;;;5052472;28;20040;-75
2021/08/24 05:39:24;;;;;;;13.15;9.07;;;12.80;99.90;;;;;;5038664;28;20044;-74
2021/08/24 05:41:50;;;;;;;12.70;9.10;;;12.80;99.90;;;;;;5032436;28;20030;-72
2021/08/24 05:44:16;;;;;;;11.00;8.35;;;12.80;99.90;;;;;;5032530;28;20041;-71
2021/08/24 05:46:42;;;;;;;10.55;8.15;;;12.90;99.90;;;;;;5043282;28;20025;-74
2021/08/24 05:49:09;;;;;;;12.18;8.32;;;12.80;99.90;;;;;;5049611;28;20371;-73
2021/08/24 05:51:36;;;;;;;16.52;9.85;;;12.90;99.90;;;;;;5051268;28;20490;-73
2021/08/24 05:54:02;;;;;;;13.68;9.23;;;12.90;99.90;;;;;;5050646;28;20028;-74
2021/08/24 05:56:28;;;;;;;11.32;8.77;;;13.00;99.90;;;;;;5050423;28;20083;-72
2021/08/24 05:58:54;;;;;;;11.93;8.20;;;13.00;99.90;;;;;;5050257;28;20025;-72
2021/08/24 06:01:29;;;;;;;13.25;9.45;;;13.10;99.90;;;;;;5050839;28;20043;-72
2021/08/24 06:03:56;;;;;;;10.98;8.73;;;13.20;99.90;;;;;;5050980;28;20048;-72
2021/08/24 06:06:27;;;;;;;11.48;8.75;;;13.30;99.90;;;;;;5048573;28;20028;-72
2021/08/24 06:08:54;;;;;;;12.75;9.15;;;13.30;99.90;;;;;;5051298;28;20078;-69
2021/08/24 06:11:26;;;;;;;13.48;9.15;;;13.40;99.90;;;;;;5051218;28;20025;-74
2021/08/24 06:13:54;;;;;;;11.10;9.20;;;13.50;99.90;;;;;;5052079;28;20032;-74
2021/08/24 06:16:19;;;;;;;15.93;9.02;;;13.60;99.90;;;;;;5067427;28;20017;-74
2021/08/24 06:18:45;;;;;;;10.70;8.60;;;13.50;99.90;;;;;;5064795;28;20032;-72
2021/08/24 06:21:12;;;;;;;10.93;8.05;;;13.60;99.90;;;;;;5067052;28;20025;-73
2021/08/24 06:23:38;;;;;;;9.52;7.38;;;13.60;99.90;;;;;;5045699;28;20017;-73
2021/08/24 06:26:04;;;;;;;9.45;6.70;;;13.70;99.90;;;;;;5043886;28;20069;-74
2021/08/24 06:28:30;;;;;;;7.70;5.78;;;13.80;99.90;;;;;;5049036;28;20068;-74
2021/08/24 06:30:55;;;;;;;13.65;6.18;;;13.70;99.90;;;;;;5050557;28;20173;-74
2021/08/24 06:33:27;;;;;;;9.65;5.65;;;13.80;99.90;;;;;;5051140;28;20017;-73
2021/08/24 06:35:52;;;;;;;5.93;5.43;;;13.90;99.90;;;;;;5050312;28;20163;-73
2021/08/24 06:38:18;;;;;;;7.40;5.68;;;14.10;99.90;;;;;;5049601;28;20749;-73
2021/08/24 06:40:44;;;;;;;7.03;5.63;;;14.10;99.90;;;;;;5047867;28;20036;-73
2021/08/24 06:43:09;;;;;;;6.75;4.93;;;14.20;99.90;;;;;;5030454;28;20029;-73
2021/08/24 06:45:35;;;;;;;5.22;4.72;;;14.30;99.90;;;;;;5029006;28;20025;-73
2021/08/24 06:48:01;;;;;;;7.88;3.65;;;14.40;99.90;;;;;;5030778;28;20086;-74
2021/08/24 06:50:28;;;;;;;7.15;3.92;;;14.50;99.90;;;;;;5029792;28;20036;-73
2021/08/24 06:52:55;;;;;;;4.97;4.05;;;14.50;99.90;;;;;;5045929;28;20399;-74
2021/08/24 06:55:24;;;;;;;4.40;3.97;;;14.70;99.90;;;;;;5050071;28;20045;-73
2021/08/24 06:57:50;;;;;;;7.53;3.78;;;14.70;99.90;;;;;;5049914;28;20118;-74
2021/08/24 07:00:19;;;;;;;6.25;4.10;;;14.70;99.90;;;;;;5048860;28;20483;-74
2021/08/24 07:02:45;;;;;;;8.13;3.90;;;15.10;99.90;;;;;;5050561;28;20063;-75
2021/08/24 07:05:13;;;;;;;5.75;4.13;;;15.00;99.90;;;;;;5049865;28;20480;-75
2021/08/24 07:07:39;;;;;;;5.97;4.20;;;15.20;99.90;;;;;;5049303;28;20460;-75
2021/08/24 07:10:07;;;;;;;4.75;3.88;;;15.10;99.90;;;;;;5060375;28;20085;-75
2021/08/24 07:12:33;;;;;;;5.53;4.30;;;15.30;99.90;;;;;;5069968;28;20009;-75
2021/08/24 07:14:59;;;;;;;6.50;4.03;;;15.10;99.90;;;;;;5053732;28;20108;-75
2021/08/24 07:17:25;;;;;;;8.95;4.60;;;14.90;99.90;;;;;;5052942;28;20029;-73
2021/08/24 07:19:51;;;;;;;7.45;4.35;;;15.20;99.90;;;;;;5053721;28;20483;-73
2021/08/24 07:22:17;;;;;;;5.22;4.53;;;15.10;99.90;;;;;;5053019;28;20475;-73
2021/08/24 07:24:43;;;;;;;10.50;4.75;;;15.00;99.90;;;;;;5050475;28;20040;-72
2021/08/24 07:27:08;;;;;;;4.60;4.18;;;15.10;99.90;;;;;;5053157;28;20406;-74
2021/08/24 07:29:34;;;;;;;5.97;3.85;;;15.10;99.90;;;;;;5053469;28;20086;-74
2021/08/24 07:32:00;;;;;;;6.78;4.50;;;15.20;99.90;;;;;;5053683;28;20036;-72
2021/08/24 07:34:26;;;;;;;8.25;4.50;;;15.30;99.90;;;;;;5053186;28;20049;-73
2021/08/24 07:36:52;;;;;;;8.07;4.68;;;15.30;99.90;;;;;;5053749;28;20068;-73
2021/08/24 07:39:18;;;;;;;7.65;4.93;;;15.30;99.90;;;;;;5053468;28;20536;-72
2021/08/24 07:41:44;;;;;;;6.43;4.93;;;15.20;99.90;;;;;;5052440;28;20462;-74
2021/08/24 07:44:10;;;;;;;10.48;4.80;;;15.20;99.90;;;;;;5054397;28;20025;-75
2021/08/24 07:46:35;;;;;;;9.55;4.38;;;15.40;99.90;;;;;;5040979;28;20094;-72
2021/08/24 07:49:01;;;;;;;4.60;4.20;;;15.50;99.90;;;;;;5033515;28;20025;-74
2021/08/24 07:51:27;;;;;;;5.88;4.45;;;15.50;99.90;;;;;;5036033;28;20033;-75
2021/08/24 07:53:53;;;;;;;5.32;4.57;;;15.60;99.90;;;;;;5033935;28;20179;-74
2021/08/24 07:56:21;;;;;;;12.40;4.20;;;15.50;99.90;;;;;;5052690;28;20028;-74
2021/08/24 07:58:47;;;;;;;6.00;3.97;;;15.30;99.90;;;;;;5053014;28;20127;-75
2021/08/24 08:01:13;;;;;;;3.95;3.50;;;15.30;99.90;;;;;;5052382;28;20029;-73
2021/08/24 08:03:39;;;;;;;5.35;4.20;;;15.30;99.90;;;;;;5054033;28;20036;-75
2021/08/24 08:06:05;;;;;;;7.63;4.00;;;15.40;99.90;;;;;;5052818;28;20033;-74
2021/08/24 08:08:32;;;;;;;5.75;3.90;;;15.70;99.90;;;;;;5053633;28;20059;-74
2021/08/24 08:10:57;;;;;;;10.68;4.10;;;15.80;99.90;;;;;;5053033;28;20056;-74
2021/08/24 08:13:28;;;;;;;8.32;4.25;;;16.00;99.90;;;;;;5054289;28;20056;-73
2021/08/24 08:15:54;;;;;;;4.30;3.35;;;16.20;99.90;;;;;;5053739;28;20025;-72
2021/08/24 08:18:20;;;;;;;8.02;3.70;;;16.10;99.90;;;;;;5052806;28;20040;-74
2021/08/24 08:20:47;;;;;;;5.50;3.85;;;16.10;99.90;;;;;;5053714;28;20478;-76
2021/08/24 08:23:15;;;;;;;12.18;4.10;;;16.10;99.90;;;;;;5053197;28;20029;-76
2021/08/24 08:25:41;;;;;;;5.05;3.28;;;16.10;99.90;;;;;;5052149;28;20449;-76
2021/08/24 08:28:07;;;;;;;5.50;3.08;;;16.20;99.90;;;;;;5054362;28;20025;-75
2021/08/24 08:30:34;;;;;;;4.80;3.05;;;16.40;99.90;;;;;;5054815;28;20021;-76
2021/08/24 08:33:03;;;;;;;6.25;3.03;;;16.50;99.90;;;;;;5053837;28;20071;-77
2021/08/24 08:35:29;;;;;;;4.55;3.13;;;16.40;99.90;;;;;;5054038;28;20024;-77
2021/08/24 08:37:56;;;;;;;5.15;3.28;;;16.20;99.90;;;;;;5053870;28;20376;-76
2021/08/24 08:40:37;;;;;;;4.93;3.15;;;16.50;99.90;;;;;;5047980;28;20484;-75
2021/08/24 08:43:15;;;;;;;4.28;3.10;;;17.00;99.90;;;;;;5050674;28;20032;-75
2021/08/24 08:45:46;;;;;;;6.07;3.03;;;17.10;99.90;;;;;;5052199;28;20094;-76
2021/08/24 08:48:34;;;;;;;7.10;3.20;;;17.00;99.90;;;;;;5053281;28;20025;-75
2021/08/24 08:51:12;;;;;;;3.42;2.60;;;17.00;99.90;;;;;;5053279;28;20446;-75
2021/08/24 08:54:07;;;;;;;4.22;3.10;;;16.90;99.90;;;;;;5034116;28;20072;-75
2021/08/24 08:56:50;;;;;;;4.38;3.17;;;16.80;99.90;;;;;;5032840;28;20017;-75
2021/08/24 08:59:27;;;;;;;9.82;3.30;;;16.80;99.90;;;;;;5033428;28;20084;-74
2021/08/24 09:02:08;;;;;;;7.30;3.97;;;16.60;99.90;;;;;;5033744;28;20038;-75
2021/08/24 09:04:41;;;;;;;5.53;3.78;;;16.60;99.90;;;;;;5032313;28;20071;-74
2021/08/24 09:07:10;;;;;;;;;;;16.50;99.90;;;;;;5033268;28;20104;-75
2021/08/24 09:09:38;;;;;;;9.52;3.45;;;16.50;99.90;;;;;;5043218;28;19906;-75
2021/08/24 09:12:06;;;;;;;5.38;3.20;;;16.40;99.90;;;;;;5053334;28;20059;-74
2021/08/24 09:14:43;;;;;;;7.03;3.83;;;16.40;99.90;;;;;;5053706;28;20032;-76
2021/08/24 09:17:28;;;;;;;3.97;3.42;;;16.40;99.90;;;;;;5053494;28;20571;-74
2021/08/24 09:20:01;;;;;;;6.00;4.05;;;16.60;99.90;;;;;;5054892;28;20506;-75
2021/08/24 09:22:27;;;;;;;4.93;3.20;;;16.60;99.90;;;;;;5053424;28;20037;-75
2021/08/24 09:24:53;;;;;;;5.28;3.30;;;16.30;99.90;;;;;;5052767;28;20422;-74
2021/08/24 09:27:29;;;;;;;5.28;3.65;;;16.60;99.90;;;;;;5053050;28;20087;-75
2021/08/24 09:29:57;;;;;;;5.93;3.30;;;17.00;99.90;;;;;;5053153;28;20104;-73
2021/08/24 09:32:26;;;;;;;4.35;3.25;;;17.50;99.90;;;;;;5052368;28;20483;-75
2021/08/24 09:35:14;;;;;;;4.35;3.40;;;17.70;99.90;;;;;;5051911;28;20033;-75
2021/08/24 09:37:41;;;;;;;9.13;3.22;;;17.80;99.90;;;;;;5053331;28;20540;-75
2021/08/24 09:40:09;;;;;;;10.68;3.78;;;18.00;99.90;;;;;;5052667;28;20522;-76
2021/08/24 09:42:36;;;;;;;4.57;3.13;;;18.30;99.90;;;;;;5052611;28;20108;-74
2021/08/24 09:45:20;;;;;;;5.00;3.92;;;18.30;99.90;;;;;;5052219;28;20037;-76
2021/08/24 09:47:58;;;;;;;5.47;3.60;;;18.10;99.90;;;;;;5051989;28;20028;-78
2021/08/24 09:50:33;;;;;;;3.47;3.17;;;18.00;99.90;;;;;;5054049;28;20099;-75
2021/08/24 09:53:00;;;;;;;5.35;3.70;;;17.70;99.90;;;;;;5058774;28;20102;-74
2021/08/24 09:55:30;;;;;;;4.30;3.30;;;18.00;99.90;;;;;;5056126;28;20029;-75
2021/08/24 09:58:07;;;;;;;3.65;2.95;;;17.90;99.90;;;;;;5052504;28;20132;-76
2021/08/24 10:00:53;;;;;;;6.75;3.17;;;18.40;99.90;;;;;;5054214;28;20501;-78
2021/08/24 10:03:40;;;;;;;4.30;2.90;;;18.60;99.90;;;;;;5051330;28;20091;-73
2021/08/24 10:06:30;;;;;;;4.30;3.28;;;18.50;99.90;;;;;;5050138;28;20070;-75
2021/08/24 10:09:16;;;;;;;4.03;3.08;;;18.50;99.90;;;;;;5051262;28;20090;-75
2021/08/24 10:11:42;;;;;;;5.43;3.20;;;18.90;99.90;;;;;;5051517;28;20094;-75
2021/08/24 10:14:22;;;;;;;5.40;3.20;;;18.80;99.90;;;;;;5051118;28;20059;-77
2021/08/24 10:16:50;;;;;;;4.47;3.22;;;18.30;99.90;;;;;;5050702;28;20467;-73
2021/08/24 10:19:28;;;;;;;6.32;3.13;;;18.20;99.90;;;;;;5051056;28;20394;-73
2021/08/24 10:21:56;;;;;;;3.90;3.50;;;18.40;99.90;;;;;;5051133;28;20476;-74
2021/08/24 10:24:32;;;;;;;5.65;3.20;;;18.50;99.90;;;;;;5050373;28;20040;-75
2021/08/24 10:27:08;;;;;;;3.03;2.63;;;18.50;99.90;;;;;;5051409;28;20033;-75
2021/08/24 10:29:39;;;;;;;2.92;2.70;;;19.00;99.90;;;;;;5051624;28;20082;-74
2021/08/24 10:32:09;;;;;;;6.30;3.50;;;19.10;99.90;;;;;;5051363;28;20430;-76
2021/08/24 10:34:45;;;;;;;7.45;3.75;;;19.20;99.90;;;;;;5050418;28;20564;-74
2021/08/24 10:37:25;;;;;;;5.93;3.10;;;18.80;99.90;;;;;;5049602;28;20044;-74
2021/08/24 10:40:09;;;;;;;6.70;2.97;;;18.90;99.90;;;;;;5049777;28;20093;-73
2021/08/24 10:42:38;;;;;;;7.60;3.28;;;18.80;99.90;;;;;;5057264;28;20156;-76
2021/08/24 10:45:27;;;;;;;2.70;2.45;;;18.90;99.90;;;;;;5055133;28;20475;-75
2021/08/24 10:47:56;;;;;;;2.88;2.35;;;19.40;99.90;;;;;;5039148;28;20028;-76
2021/08/24 10:50:31;;;;;;;2.72;2.38;;;19.50;99.90;;;;;;5053797;28;20109;-75
2021/08/24 10:53:31;;;;;;;3.88;2.58;;;19.80;99.90;;;;;;5049509;28;20029;-76
2021/08/24 10:56:14;;;;;;;4.10;2.72;;;19.70;99.90;;;;;;5039651;28;20123;-76
2021/08/24 10:59:07;;;;;;;2.83;2.63;;;19.50;99.90;;;;;;5054636;28;20021;-75
2021/08/24 11:01:43;;;;;;;4.82;2.95;;;19.30;99.90;;;;;;5054497;28;20426;-75
2021/08/24 11:04:50;;;;;;;3.42;2.20;;;19.50;99.90;;;;;;5055151;28;20025;-74
2021/08/24 11:07:38;;;;;;;2.30;2.20;;;20.10;99.90;;;;;;5033774;28;20048;-76
2021/08/24 11:10:10;;;;;;;2.17;2.08;;;20.90;99.90;;;;;;5055934;28;20021;-75
2021/08/24 11:12:45;;;;;;;2.53;2.33;;;20.70;99.90;;;;;;5056582;28;20024;-75
2021/08/24 11:15:49;;;;;;;6.22;2.75;;;20.70;99.90;;;;;;5055258;28;20084;-77
2021/08/24 11:18:43;;;;;;;2.30;2.10;;;21.10;99.90;;;;;;5054843;28;20025;-75
2021/08/24 11:22:02;;;;;;;3.40;3.10;;;20.80;99.90;;;;;;5053879;28;20024;-71
2021/08/24 11:25:04;;;;;;;5.60;3.03;;;19.70;99.90;;;;;;5034915;28;20048;-72
2021/08/24 11:27:30;;;;;;;;;;;19.30;99.90;;;;;;5050471;28;20067;-72
2021/08/24 11:32:41;;;;;;;2.72;2.40;;;19.30;99.90;;;;;;5041572;28;20064;-73
2021/08/24 11:35:36;;;;;;;3.78;3.35;;;19.50;99.90;;;;;;5050752;28;20114;-72
2021/08/24 11:38:09;;;;;;;5.35;2.90;;;20.10;99.90;;;;;;5034881;28;20033;-73
2021/08/24 11:40:58;;;;;;;2.05;1.95;;;21.40;99.90;;;;;;5049735;28;20378;-70
2021/08/24 11:43:36;;;;;;;5.75;2.63;;;22.00;99.90;;;;;;5063168;28;20017;-70
2021/08/24 11:46:14;;;;;;;4.47;2.42;;;22.60;99.90;;;;;;5053221;28;20427;-71
2021/08/24 11:48:43;;;;;;;2.55;2.35;;;22.90;99.90;;;;;;5053877;28;20112;-71
2021/08/24 11:51:11;;;;;;;3.63;2.60;;;23.70;99.90;;;;;;5053696;28;20382;-72
2021/08/24 11:53:55;;;;;;;3.00;2.78;;;22.50;99.90;;;;;;5053712;28;20033;-71
2021/08/24 11:57:05;;;;;;;2.35;2.15;;;22.40;99.90;;;;;;5062560;28;20465;-71
2021/08/24 11:59:42;;;;;;;3.25;2.78;;;21.80;99.90;;;;;;5021616;28;20033;-71
2021/08/24 12:02:23;;;;;;;2.88;2.30;;;21.60;99.90;;;;;;5070677;28;20028;-71
2021/08/24 12:04:51;;;;;;;4.07;2.60;;;22.10;99.90;;;;;;5070809;28;20013;-70
2021/08/24 12:07:33;;;;;;;2.72;2.53;;;22.20;99.90;;;;;;5072177;28;20020;-72
2021/08/24 12:10:00;;;;;;;2.97;2.77;;;21.60;99.90;;;;;;5070129;28;20031;-70
2021/08/24 12:12:29;;;;;;;2.40;2.20;;;21.40;99.90;;;;;;5072254;28;20016;-71
2021/08/24 12:15:03;;;;;;;3.13;2.83;;;21.80;99.90;;;;;;5071690;28;20051;-70
2021/08/24 12:17:34;;;;;;;3.22;2.33;;;21.50;99.90;;;;;;5072279;28;20025;-69
2021/08/24 12:20:04;;;;;;;3.17;2.67;;;20.70;99.90;;;;;;5070431;28;20028;-72
2021/08/24 12:22:52;;;;;;;2.92;2.72;;;20.90;99.90;;;;;;5071945;28;20025;-72
2021/08/24 12:25:37;;;;;;;3.15;2.75;;;20.10;99.90;;;;;;5069147;28;20112;-71
2021/08/24 12:28:17;;;;;;;2.42;2.22;;;20.00;99.90;;;;;;5070437;28;20047;-71
2021/08/24 12:31:00;;;;;;;5.13;2.78;;;20.20;99.90;;;;;;5068797;28;20028;-71
2021/08/24 12:33:45;;;;;;;5.93;3.17;;;20.50;99.90;;;;;;5069745;28;20013;-72
2021/08/24 12:36:17;;;;;;;3.92;2.53;;;20.80;99.90;;;;;;5071653;28;20021;-77
2021/08/24 12:38:45;;;;;;;2.83;2.60;;;20.70;99.90;;;;;;5071801;28;20035;-76
2021/08/24 12:41:31;;;;;;;3.15;2.85;;;20.40;99.90;;;;;;5053969;28;20028;-76
2021/08/24 12:44:23;;;;;;;2.78;2.42;;;20.50;99.90;;;;;;5071730;28;20013;-77
2021/08/24 12:47:11;;;;;;;3.45;3.15;;;20.70;99.90;;;;;;5052814;28;20024;-77
2021/08/24 12:49:37;;;;;;;2.75;2.55;;;21.20;99.90;;;;;;5050890;28;20386;-77
2021/08/24 12:52:26;;;;;;;2.20;2.10;;;21.40;99.90;;;;;;5071608;28;20024;-76
2021/08/24 12:55:03;;;;;;;2.38;2.17;;;20.80;99.90;;;;;;5052571;28;20691;-78
2021/08/24 12:57:43;;;;;;;4.95;3.08;;;20.30;99.90;;;;;;5072220;28;20040;-77
2021/08/24 13:00:34;;;;;;;2.60;2.40;;;20.40;99.90;;;;;;5071707;28;20078;-77
2021/08/24 13:03:15;;;;;;;2.90;2.67;;;20.40;99.90;;;;;;5069556;28;20440;-77
2021/08/24 13:05:41;;;;;;;2.92;2.72;;;20.30;99.90;;;;;;5050795;28;20016;-77
2021/08/24 13:08:25;;;;;;;3.03;2.63;;;20.10;99.90;;;;;;5071388;28;20107;-76
2021/08/24 13:10:54;;;;;;;3.20;2.78;;;19.90;99.90;;;;;;5070386;28;20075;-77
2021/08/24 13:13:34;;;;;;;3.15;2.70;;;19.80;99.90;;;;;;5068793;28;20017;-77
2021/08/24 13:16:22;;;;;;;6.88;2.58;;;19.60;99.90;;;;;;5068436;28;20493;-77